sensor_id;sensor_type;location;lat;lon;timestamp;temperature;humidity
7461;DHT22;6757;52.258;12.840;2023-04-01T00:00:35;8.70;99.90
7461;DHT22;6757;52.258;12.840;2023-04-01T00:03:02;8.70;99.90
7461;DHT22;6757;52.258;12.840;2023-04-01T00:05:29;8.70;99.90
7461;DHT22;6757;52.258;12.840;2023-04-01T00:07:56;8.70;99.90
7461;DHT22;6757;52.258;12.840;2023-04-01T00:10:24;8.70;99.90
7461;DHT22;6757;52.258;12.840;2023-04-01T00:12:51;8.70;99.90
7461;DHT22;6757;52.258;12.840;2023-04-01T00:15:18;8.70;99.90
7461;DHT22;6757;52.258;12.840;2023-04-01T00:17:46;8.70;99.90
7461;DHT22;6757;52.258;12.840;2023-04-01T00:20:13;8.60;99.90
7461;DHT22;6757;52.258;12.840;2023-04-01T00:22:41;8.60;99.90
7461;DHT22;6757;52.258;12.840;2023-04-01T00:25:08;8.60;99.90
7461;DHT22;6757;52.258;12.840;2023-04-01T00:27:37;8.60;99.90
7461;DHT22;6757;52.258;12.840;2023-04-01T00:30:05;8.60;99.90
7461;DHT22;6757;52.258;12.840;2023-04-01T00:32:33;8.60;99.90
7461;DHT22;6757;52.258;12.840;2023-04-01T00:35:00;8.60;99.90
7461;DHT22;6757;52.258;12.840;2023-04-01T00:37:28;8.60;99.90
7461;DHT22;6757;52.258;12.840;2023-04-01T00:39:55;8.60;99.90
7461;DHT22;6757;52.258;12.840;2023-04-01T00:42:23;8.60;99.90
7461;DHT22;6757;52.258;12.840;2023-04-01T00:44:53;8.60;99.90
7461;DHT22;6757;52.258;12.840;2023-04-01T00:47:21;8.60;99.90
7461;DHT22;6757;52.258;12.840;2023-04-01T00:49:51;8.60;99.90
7461;DHT22;6757;52.258;12.840;2023-04-01T00:52:23;8.60;99.90
7461;DHT22;6757;52.258;12.840;2023-04-01T00:54:56;8.60;99.90
7461;DHT22;6757;52.258;12.840;2023-04-01T00:57:27;8.60;99.90
7461;DHT22;6757;52.258;12.840;2023-04-01T00:59:56;8.70;99.90
7461;DHT22;6757;52.258;12.840;2023-04-01T01:02:25;8.60;99.90
7461;DHT22;6757;52.258;12.840;2023-04-01T01:04:52;8.70;99.90
7461;DHT22;6757;52.258;12.840;2023-04-01T01:07:26;8.70;99.90
7461;DHT22;6757;52.258;12.840;2023-04-01T01:10:02;8.70;99.90
7461;DHT22;6757;52.258;12.840;2023-04-01T01:12:37;8.70;99.90
7461;DHT22;6757;52.258;12.840;2023-04-01T01:15:13;8.70;99.90
7461;DHT22;6757;52.258;12.840;2023-04-01T01:17:50;8.70;99.90
7461;DHT22;6757;52.258;12.840;2023-04-01T01:20:48;8.70;99.90
7461;DHT22;6757;52.258;12.840;2023-04-01T01:26:44;8.70;99.90
7461;DHT22;6757;52.258;12.840;2023-04-01T01:29:33;8.70;99.90
7461;DHT22;6757;52.258;12.840;2023-04-01T01:32:38;8.70;99.90
7461;DHT22;6757;52.258;12.840;2023-04-01T01:35:21;8.70;99.90
7461;DHT22;6757;52.258;12.840;2023-04-01T01:37:51;8.70;99.90
7461;DHT22;6757;52.258;12.840;2023-04-01T01:40:21;8.70;99.90
7461;DHT22;6757;52.258;12.840;2023-04-01T01:42:53;8.70;99.90
7461;DHT22;6757;52.258;12.840;2023-04-01T01:45:24;8.70;99.90
7461;DHT22;6757;52.258;12.840;2023-04-01T01:47:53;8.70;99.90
7461;DHT22;6757;52.258;12.840;2023-04-01T01:50:24;8.70;99.90
7461;DHT22;6757;52.258;12.840;2023-04-01T01:53:00;8.70;99.90
7461;DHT22;6757;52.258;12.840;2023-04-01T01:55:30;8.70;99.90
7461;DHT22;6757;52.258;12.840;2023-04-01T01:58:00;8.70;99.90
7461;DHT22;6757;52.258;12.840;2023-04-01T02:00:31;8.70;99.90
7461;DHT22;6757;52.258;12.840;2023-04-01T02:02:59;8.70;99.90
7461;DHT22;6757;52.258;12.840;2023-04-01T02:05:29;8.80;99.90
7461;DHT22;6757;52.258;12.840;2023-04-01T02:08:01;8.80;99.90
7461;DHT22;6757;52.258;12.840;2023-04-01T02:10:35;8.80;99.90
7461;DHT22;6757;52.258;12.840;2023-04-01T02:13:09;8.80;99.90
7461;DHT22;6757;52.258;12.840;2023-04-01T02:15:44;8.80;99.90
7461;DHT22;6757;52.258;12.840;2023-04-01T02:18:13;8.80;99.90
7461;DHT22;6757;52.258;12.840;2023-04-01T02:20:43;8.80;99.90
7461;DHT22;6757;52.258;12.840;2023-04-01T02:23:11;8.80;99.90
7461;DHT22;6757;52.258;12.840;2023-04-01T02:25:39;8.80;99.90
7461;DHT22;6757;52.258;12.840;2023-04-01T02:28:09;8.80;99.90
7461;DHT22;6757;52.258;12.840;2023-04-01T02:30:39;8.80;99.90
7461;DHT22;6757;52.258;12.840;2023-04-01T02:33:07;8.80;99.90
7461;DHT22;6757;52.258;12.840;2023-04-01T02:35:36;8.80;99.90
7461;DHT22;6757;52.258;12.840;2023-04-01T02:38:05;8.70;99.90
7461;DHT22;6757;52.258;12.840;2023-04-01T02:40:42;8.80;99.90
7461;DHT22;6757;52.258;12.840;2023-04-01T02:43:10;8.80;99.90
7461;DHT22;6757;52.258;12.840;2023-04-01T02:45:37;8.80;99.90
7461;DHT22;6757;52.258;12.840;2023-04-01T02:48:05;8.80;99.90
7461;DHT22;6757;52.258;12.840;2023-04-01T02:50:32;8.80;99.90
7461;DHT22;6757;52.258;12.840;2023-04-01T02:53:00;8.80;99.90
7461;DHT22;6757;52.258;12.840;2023-04-01T02:55:29;8.80;99.90
7461;DHT22;6757;52.258;12.840;2023-04-01T02:57:56;8.80;99.90
7461;DHT22;6757;52.258;12.840;2023-04-01T03:00:24;8.80;99.90
7461;DHT22;6757;52.258;12.840;2023-04-01T03:02:51;8.80;99.90
7461;DHT22;6757;52.258;12.840;2023-04-01T03:05:18;8.80;99.90
7461;DHT22;6757;52.258;12.840;2023-04-01T03:07:45;8.80;99.90
7461;DHT22;6757;52.258;12.840;2023-04-01T03:10:12;8.80;99.90
7461;DHT22;6757;52.258;12.840;2023-04-01T03:12:40;8.80;99.90
7461;DHT22;6757;52.258;12.840;2023-04-01T03:15:10;8.90;99.90
7461;DHT22;6757;52.258;12.840;2023-04-01T03:17:37;8.80;99.90
7461;DHT22;6757;52.258;12.840;2023-04-01T03:20:05;8.80;99.90
7461;DHT22;6757;52.258;12.840;2023-04-01T03:22:33;8.80;99.90
7461;DHT22;6757;52.258;12.840;2023-04-01T03:25:00;8.80;99.90
7461;DHT22;6757;52.258;12.840;2023-04-01T03:27:27;8.80;99.90
7461;DHT22;6757;52.258;12.840;2023-04-01T03:29:56;8.80;99.90
7461;DHT22;6757;52.258;12.840;2023-04-01T03:32:22;8.80;99.90
7461;DHT22;6757;52.258;12.840;2023-04-01T03:34:49;8.80;99.90
7461;DHT22;6757;52.258;12.840;2023-04-01T03:37:16;8.80;99.90
7461;DHT22;6757;52.258;12.840;2023-04-01T03:39:43;8.80;99.90
7461;DHT22;6757;52.258;12.840;2023-04-01T03:42:11;8.80;99.90
7461;DHT22;6757;52.258;12.840;2023-04-01T03:44:38;8.80;99.90
7461;DHT22;6757;52.258;12.840;2023-04-01T03:47:06;8.80;99.90
7461;DHT22;6757;52.258;12.840;2023-04-01T03:49:34;8.80;99.90
7461;DHT22;6757;52.258;12.840;2023-04-01T03:52:01;8.80;99.90
7461;DHT22;6757;52.258;12.840;2023-04-01T03:54:28;8.80;99.90
7461;DHT22;6757;52.258;12.840;2023-04-01T03:56:55;8.80;99.90
7461;DHT22;6757;52.258;12.840;2023-04-01T03:59:23;8.80;99.90
7461;DHT22;6757;52.258;12.840;2023-04-01T04:01:50;8.80;99.90
7461;DHT22;6757;52.258;12.840;2023-04-01T04:04:18;8.80;99.90
7461;DHT22;6757;52.258;12.840;2023-04-01T04:06:45;8.80;99.90
7461;DHT22;6757;52.258;12.840;2023-04-01T04:09:12;8.80;99.90
7461;DHT22;6757;52.258;12.840;2023-04-01T04:11:39;8.80;99.90
7461;DHT22;6757;52.258;12.840;2023-04-01T04:14:06;8.70;99.90
7461;DHT22;6757;52.258;12.840;2023-04-01T04:16:34;8.70;99.90
7461;DHT22;6757;52.258;12.840;2023-04-01T04:19:03;8.70;99.90
7461;DHT22;6757;52.258;12.840;2023-04-01T04:21:31;8.70;99.90
7461;DHT22;6757;52.258;12.840;2023-04-01T04:23:58;8.70;99.90
7461;DHT22;6757;52.258;12.840;2023-04-01T04:26:26;8.70;99.90
7461;DHT22;6757;52.258;12.840;2023-04-01T04:28:53;8.70;99.90
7461;DHT22;6757;52.258;12.840;2023-04-01T04:31:22;8.70;99.90
7461;DHT22;6757;52.258;12.840;2023-04-01T04:33:50;8.70;99.90
7461;DHT22;6757;52.258;12.840;2023-04-01T04:36:17;8.70;99.90
7461;DHT22;6757;52.258;12.840;2023-04-01T04:38:45;8.70;99.90
7461;DHT22;6757;52.258;12.840;2023-04-01T04:41:14;8.70;99.90
7461;DHT22;6757;52.258;12.840;2023-04-01T04:43:49;8.70;99.90
7461;DHT22;6757;52.258;12.840;2023-04-01T04:46:17;8.70;99.90
7461;DHT22;6757;52.258;12.840;2023-04-01T04:48:45;8.60;99.90
7461;DHT22;6757;52.258;12.840;2023-04-01T04:51:14;8.60;99.90
7461;DHT22;6757;52.258;12.840;2023-04-01T04:53:41;8.60;99.90
7461;DHT22;6757;52.258;12.840;2023-04-01T04:56:10;8.60;99.90
7461;DHT22;6757;52.258;12.840;2023-04-01T04:58:37;8.60;99.90
7461;DHT22;6757;52.258;12.840;2023-04-01T05:01:06;8.60;99.90
7461;DHT22;6757;52.258;12.840;2023-04-01T05:03:34;8.70;99.90
7461;DHT22;6757;52.258;12.840;2023-04-01T05:06:01;8.60;99.90
7461;DHT22;6757;52.258;12.840;2023-04-01T05:08:28;8.60;99.90
7461;DHT22;6757;52.258;12.840;2023-04-01T05:10:55;8.60;99.90
7461;DHT22;6757;52.258;12.840;2023-04-01T05:13:24;8.60;99.90
7461;DHT22;6757;52.258;12.840;2023-04-01T05:15:51;8.70;99.90
7461;DHT22;6757;52.258;12.840;2023-04-01T05:18:18;8.80;99.90
7461;DHT22;6757;52.258;12.840;2023-04-01T05:20:48;8.90;99.90
7461;DHT22;6757;52.258;12.840;2023-04-01T05:23:16;8.90;99.90
7461;DHT22;6757;52.258;12.840;2023-04-01T05:25:43;8.90;99.90
7461;DHT22;6757;52.258;12.840;2023-04-01T05:28:11;9.00;99.90
7461;DHT22;6757;52.258;12.840;2023-04-01T05:30:41;9.10;99.90
7461;DHT22;6757;52.258;12.840;2023-04-01T05:33:08;9.20;99.90
7461;DHT22;6757;52.258;12.840;2023-04-01T05:35:36;9.30;99.90
7461;DHT22;6757;52.258;12.840;2023-04-01T05:38:03;9.30;99.90
7461;DHT22;6757;52.258;12.840;2023-04-01T05:40:30;9.30;99.90
7461;DHT22;6757;52.258;12.840;2023-04-01T05:42:57;9.20;99.90
7461;DHT22;6757;52.258;12.840;2023-04-01T05:45:25;9.20;99.90
7461;DHT22;6757;52.258;12.840;2023-04-01T05:47:55;9.20;99.90
7461;DHT22;6757;52.258;12.840;2023-04-01T05:50:21;9.10;99.90
7461;DHT22;6757;52.258;12.840;2023-04-01T05:52:48;9.10;99.90
7461;DHT22;6757;52.258;12.840;2023-04-01T05:55:15;9.10;99.90
7461;DHT22;6757;52.258;12.840;2023-04-01T05:57:44;9.10;99.90
7461;DHT22;6757;52.258;12.840;2023-04-01T06:00:12;9.10;99.90
7461;DHT22;6757;52.258;12.840;2023-04-01T06:02:40;9.10;99.90
7461;DHT22;6757;52.258;12.840;2023-04-01T06:05:18;9.10;99.90
7461;DHT22;6757;52.258;12.840;2023-04-01T06:07:47;9.10;99.90
7461;DHT22;6757;52.258;12.840;2023-04-01T06:10:16;9.10;99.90
7461;DHT22;6757;52.258;12.840;2023-04-01T06:12:56;9.10;99.90
7461;DHT22;6757;52.258;12.840;2023-04-01T06:15:34;9.20;99.90
7461;DHT22;6757;52.258;12.840;2023-04-01T06:24:35;9.30;99.90
7461;DHT22;6757;52.258;12.840;2023-04-01T06:27:16;9.30;99.90
7461;DHT22;6757;52.258;12.840;2023-04-01T06:29:58;9.40;99.90
7461;DHT22;6757;52.258;12.840;2023-04-01T06:32:54;9.40;99.90
7461;DHT22;6757;52.258;12.840;2023-04-01T06:35:50;9.50;99.90
7461;DHT22;6757;52.258;12.840;2023-04-01T06:38:39;9.50;99.90
7461;DHT22;6757;52.258;12.840;2023-04-01T06:41:25;9.60;99.90
7461;DHT22;6757;52.258;12.840;2023-04-01T06:44:11;9.70;99.90
7461;DHT22;6757;52.258;12.840;2023-04-01T06:46:45;9.70;99.90
7461;DHT22;6757;52.258;12.840;2023-04-01T06:49:25;9.80;99.90
7461;DHT22;6757;52.258;12.840;2023-04-01T06:52:02;9.80;99.90
7461;DHT22;6757;52.258;12.840;2023-04-01T06:54:36;9.90;99.90
7461;DHT22;6757;52.258;12.840;2023-04-01T06:57:18;9.90;99.90
7461;DHT22;6757;52.258;12.840;2023-04-01T06:59:48;10.00;99.90
7461;DHT22;6757;52.258;12.840;2023-04-01T07:02:24;10.00;99.90
7461;DHT22;6757;52.258;12.840;2023-04-01T07:04:55;10.00;99.90
7461;DHT22;6757;52.258;12.840;2023-04-01T07:07:29;10.10;99.90
7461;DHT22;6757;52.258;12.840;2023-04-01T07:10:03;10.20;99.90
7461;DHT22;6757;52.258;12.840;2023-04-01T07:12:38;10.20;99.90
7461;DHT22;6757;52.258;12.840;2023-04-01T07:15:16;10.20;99.90
7461;DHT22;6757;52.258;12.840;2023-04-01T07:17:47;10.30;99.90
7461;DHT22;6757;52.258;12.840;2023-04-01T07:20:20;10.30;99.90
7461;DHT22;6757;52.258;12.840;2023-04-01T07:22:50;10.30;99.90
7461;DHT22;6757;52.258;12.840;2023-04-01T07:25:24;10.30;99.90
7461;DHT22;6757;52.258;12.840;2023-04-01T07:27:53;10.30;99.90
7461;DHT22;6757;52.258;12.840;2023-04-01T07:30:23;10.40;99.90
7461;DHT22;6757;52.258;12.840;2023-04-01T07:32:53;10.40;99.90
7461;DHT22;6757;52.258;12.840;2023-04-01T07:35:25;10.40;99.90
7461;DHT22;6757;52.258;12.840;2023-04-01T07:38:05;10.40;99.90
7461;DHT22;6757;52.258;12.840;2023-04-01T07:40:45;10.40;99.90
7461;DHT22;6757;52.258;12.840;2023-04-01T07:43:26;10.40;99.90
7461;DHT22;6757;52.258;12.840;2023-04-01T07:46:16;10.50;99.90
7461;DHT22;6757;52.258;12.840;2023-04-01T07:48:57;10.50;99.90
7461;DHT22;6757;52.258;12.840;2023-04-01T07:51:31;10.50;99.90
7461;DHT22;6757;52.258;12.840;2023-04-01T07:54:04;10.50;99.90
7461;DHT22;6757;52.258;12.840;2023-04-01T07:56:40;10.50;99.90
7461;DHT22;6757;52.258;12.840;2023-04-01T07:59:17;10.50;99.90
7461;DHT22;6757;52.258;12.840;2023-04-01T08:01:58;10.50;99.90
7461;DHT22;6757;52.258;12.840;2023-04-01T08:04:43;10.50;99.90
7461;DHT22;6757;52.258;12.840;2023-04-01T08:07:18;10.50;99.90
7461;DHT22;6757;52.258;12.840;2023-04-01T08:09:53;10.60;99.90
7461;DHT22;6757;52.258;12.840;2023-04-01T08:12:35;10.60;99.90
7461;DHT22;6757;52.258;12.840;2023-04-01T08:15:13;10.70;99.90
7461;DHT22;6757;52.258;12.840;2023-04-01T08:17:59;11.20;99.90
7461;DHT22;6757;52.258;12.840;2023-04-01T08:20:36;10.80;99.90
7461;DHT22;6757;52.258;12.840;2023-04-01T08:23:11;10.80;99.90
7461;DHT22;6757;52.258;12.840;2023-04-01T08:25:44;10.90;99.90
7461;DHT22;6757;52.258;12.840;2023-04-01T08:28:20;10.90;99.90
7461;DHT22;6757;52.258;12.840;2023-04-01T08:30:53;11.00;99.90
7461;DHT22;6757;52.258;12.840;2023-04-01T08:33:25;11.00;99.90
7461;DHT22;6757;52.258;12.840;2023-04-01T08:35:56;11.00;99.90
7461;DHT22;6757;52.258;12.840;2023-04-01T08:38:28;11.10;99.90
7461;DHT22;6757;52.258;12.840;2023-04-01T08:41:04;11.20;99.90
7461;DHT22;6757;52.258;12.840;2023-04-01T08:44:10;11.20;99.90
7461;DHT22;6757;52.258;12.840;2023-04-01T08:47:09;11.20;99.90
7461;DHT22;6757;52.258;12.840;2023-04-01T08:50:01;11.30;99.90
7461;DHT22;6757;52.258;12.840;2023-04-01T08:52:51;11.30;99.90
7461;DHT22;6757;52.258;12.840;2023-04-01T08:55:38;11.30;99.90
7461;DHT22;6757;52.258;12.840;2023-04-01T08:58:50;12.00;99.90
7461;DHT22;6757;52.258;12.840;2023-04-01T09:01:31;11.40;99.90
7461;DHT22;6757;52.258;12.840;2023-04-01T09:04:24;11.50;99.90
7461;DHT22;6757;52.258;12.840;2023-04-01T09:07:09;11.80;99.90
7461;DHT22;6757;52.258;12.840;2023-04-01T09:10:33;12.00;99.90
7461;DHT22;6757;52.258;12.840;2023-04-01T09:13:27;11.50;99.90
7461;DHT22;6757;52.258;12.840;2023-04-01T09:16:23;11.50;99.90
7461;DHT22;6757;52.258;12.840;2023-04-01T09:19:09;11.50;99.90
7461;DHT22;6757;52.258;12.840;2023-04-01T09:22:01;11.50;99.90
7461;DHT22;6757;52.258;12.840;2023-04-01T09:25:08;11.60;99.90
7461;DHT22;6757;52.258;12.840;2023-04-01T09:27:54;11.50;99.90
7461;DHT22;6757;52.258;12.840;2023-04-01T09:30:37;11.60;99.90
7461;DHT22;6757;52.258;12.840;2023-04-01T09:33:48;11.60;99.90
7461;DHT22;6757;52.258;12.840;2023-04-01T09:36:45;11.60;99.90
7461;DHT22;6757;52.258;12.840;2023-04-01T09:39:34;11.70;99.90
7461;DHT22;6757;52.258;12.840;2023-04-01T09:42:29;11.70;99.90
7461;DHT22;6757;52.258;12.840;2023-04-01T09:45:09;11.70;99.90
7461;DHT22;6757;52.258;12.840;2023-04-01T09:48:00;11.70;99.90
7461;DHT22;6757;52.258;12.840;2023-04-01T09:50:42;11.70;99.90
7461;DHT22;6757;52.258;12.840;2023-04-01T09:53:28;11.90;99.90
7461;DHT22;6757;52.258;12.840;2023-04-01T09:56:29;11.80;99.90
7461;DHT22;6757;52.258;12.840;2023-04-01T10:02:53;11.90;99.90
7461;DHT22;6757;52.258;12.840;2023-04-01T10:09:54;12.10;99.90
7461;DHT22;6757;52.258;12.840;2023-04-01T10:13:23;12.20;99.90
7461;DHT22;6757;52.258;12.840;2023-04-01T10:16:20;12.20;99.90
7461;DHT22;6757;52.258;12.840;2023-04-01T10:19:37;12.30;99.90
7461;DHT22;6757;52.258;12.840;2023-04-01T10:32:36;12.60;99.90
7461;DHT22;6757;52.258;12.840;2023-04-01T10:38:49;12.70;99.90
7461;DHT22;6757;52.258;12.840;2023-04-01T10:41:56;12.70;99.90
7461;DHT22;6757;52.258;12.840;2023-04-01T10:48:12;12.70;99.90
7461;DHT22;6757;52.258;12.840;2023-04-01T10:51:18;12.70;99.90
7461;DHT22;6757;52.258;12.840;2023-04-01T10:56:59;12.60;99.90
7461;DHT22;6757;52.258;12.840;2023-04-01T11:06:55;12.50;99.90
7461;DHT22;6757;52.258;12.840;2023-04-01T11:10:04;12.60;99.90
7461;DHT22;6757;52.258;12.840;2023-04-01T11:13:26;12.60;99.90
7461;DHT22;6757;52.258;12.840;2023-04-01T11:23:28;12.70;99.90
7461;DHT22;6757;52.258;12.840;2023-04-01T11:26:08;12.90;99.90
7461;DHT22;6757;52.258;12.840;2023-04-01T11:28:54;12.90;99.90
7461;DHT22;6757;52.258;12.840;2023-04-01T11:31:37;13.00;99.90
7461;DHT22;6757;52.258;12.840;2023-04-01T11:34:20;13.20;99.90
7461;DHT22;6757;52.258;12.840;2023-04-01T11:37:03;13.30;99.90
7461;DHT22;6757;52.258;12.840;2023-04-01T11:39:42;13.40;99.90
7461;DHT22;6757;52.258;12.840;2023-04-01T11:42:22;13.50;99.90
7461;DHT22;6757;52.258;12.840;2023-04-01T11:45:07;13.60;99.90
7461;DHT22;6757;52.258;12.840;2023-04-01T11:48:03;13.70;99.90
7461;DHT22;6757;52.258;12.840;2023-04-01T11:50:46;13.80;99.90
7461;DHT22;6757;52.258;12.840;2023-04-01T11:53:34;13.80;99.90
7461;DHT22;6757;52.258;12.840;2023-04-01T11:56:18;13.80;99.90
7461;DHT22;6757;52.258;12.840;2023-04-01T11:59:02;13.60;99.90
7461;DHT22;6757;52.258;12.840;2023-04-01T12:01:45;13.50;99.90
7461;DHT22;6757;52.258;12.840;2023-04-01T12:04:46;13.40;99.90
7461;DHT22;6757;52.258;12.840;2023-04-01T12:07:34;13.30;99.90
7461;DHT22;6757;52.258;12.840;2023-04-01T12:10:17;13.10;99.90
7461;DHT22;6757;52.258;12.840;2023-04-01T12:12:53;13.00;99.90
7461;DHT22;6757;52.258;12.840;2023-04-01T12:15:29;12.90;99.90
7461;DHT22;6757;52.258;12.840;2023-04-01T12:18:12;12.80;99.90
7461;DHT22;6757;52.258;12.840;2023-04-01T12:20:49;12.70;99.90
7461;DHT22;6757;52.258;12.840;2023-04-01T12:23:44;12.60;99.90
7461;DHT22;6757;52.258;12.840;2023-04-01T12:26:38;12.50;99.90
7461;DHT22;6757;52.258;12.840;2023-04-01T12:29:34;12.30;99.90
7461;DHT22;6757;52.258;12.840;2023-04-01T12:32:17;12.20;99.90
7461;DHT22;6757;52.258;12.840;2023-04-01T12:35:02;12.10;99.90
7461;DHT22;6757;52.258;12.840;2023-04-01T12:37:49;12.00;99.90
7461;DHT22;6757;52.258;12.840;2023-04-01T12:40:46;11.90;99.90
7461;DHT22;6757;52.258;12.840;2023-04-01T12:43:53;11.90;99.90
7461;DHT22;6757;52.258;12.840;2023-04-01T12:46:42;11.80;99.90
7461;DHT22;6757;52.258;12.840;2023-04-01T12:49:34;11.70;99.90
7461;DHT22;6757;52.258;12.840;2023-04-01T12:52:13;11.70;99.90
7461;DHT22;6757;52.258;12.840;2023-04-01T13:02:01;11.40;99.90
7461;DHT22;6757;52.258;12.840;2023-04-01T13:05:01;11.30;99.90
7461;DHT22;6757;52.258;12.840;2023-04-01T13:08:09;11.10;99.90
7461;DHT22;6757;52.258;12.840;2023-04-01T13:16:52;10.90;99.90
7461;DHT22;6757;52.258;12.840;2023-04-01T13:19:25;10.90;99.90
7461;DHT22;6757;52.258;12.840;2023-04-01T13:22:00;10.80;99.90
7461;DHT22;6757;52.258;12.840;2023-04-01T13:24:41;11.30;99.90
7461;DHT22;6757;52.258;12.840;2023-04-01T13:27:18;10.60;99.90
7461;DHT22;6757;52.258;12.840;2023-04-01T13:30:02;10.60;99.90
7461;DHT22;6757;52.258;12.840;2023-04-01T13:32:47;10.60;99.90
7461;DHT22;6757;52.258;12.840;2023-04-01T13:35:23;10.50;99.90
7461;DHT22;6757;52.258;12.840;2023-04-01T13:38:36;10.50;99.90
7461;DHT22;6757;52.258;12.840;2023-04-01T13:41:21;10.50;99.90
7461;DHT22;6757;52.258;12.840;2023-04-01T13:43:59;10.50;99.90
7461;DHT22;6757;52.258;12.840;2023-04-01T13:46:44;10.40;99.90
7461;DHT22;6757;52.258;12.840;2023-04-01T13:52:54;10.50;99.90
7461;DHT22;6757;52.258;12.840;2023-04-01T13:55:40;10.40;99.90
7461;DHT22;6757;52.258;12.840;2023-04-01T13:58:29;10.50;99.90
7461;DHT22;6757;52.258;12.840;2023-04-01T14:01:09;10.50;99.90
7461;DHT22;6757;52.258;12.840;2023-04-01T14:07:00;10.40;99.90
7461;DHT22;6757;52.258;12.840;2023-04-01T14:10:03;10.10;99.90
7461;DHT22;6757;52.258;12.840;2023-04-01T14:12:40;10.40;99.90
7461;DHT22;6757;52.258;12.840;2023-04-01T14:15:25;10.30;99.90
7461;DHT22;6757;52.258;12.840;2023-04-01T14:18:22;10.30;99.90
7461;DHT22;6757;52.258;12.840;2023-04-01T14:21:13;10.20;99.90
7461;DHT22;6757;52.258;12.840;2023-04-01T14:24:14;10.20;99.90
7461;DHT22;6757;52.258;12.840;2023-04-01T14:27:12;10.10;99.90
7461;DHT22;6757;52.258;12.840;2023-04-01T14:30:01;10.10;99.90
7461;DHT22;6757;52.258;12.840;2023-04-01T14:32:54;10.00;99.90
7461;DHT22;6757;52.258;12.840;2023-04-01T14:35:32;9.90;99.90
7461;DHT22;6757;52.258;12.840;2023-04-01T14:38:24;9.90;99.90
7461;DHT22;6757;52.258;12.840;2023-04-01T14:41:02;9.80;99.90
7461;DHT22;6757;52.258;12.840;2023-04-01T14:44:11;9.70;99.90
7461;DHT22;6757;52.258;12.840;2023-04-01T14:47:22;9.60;99.90
7461;DHT22;6757;52.258;12.840;2023-04-01T14:50:06;9.50;99.90
7461;DHT22;6757;52.258;12.840;2023-04-01T14:52:38;9.40;99.90
7461;DHT22;6757;52.258;12.840;2023-04-01T14:55:20;9.40;99.90
7461;DHT22;6757;52.258;12.840;2023-04-01T14:58:08;9.30;99.90
7461;DHT22;6757;52.258;12.840;2023-04-01T15:00:50;9.30;99.90
7461;DHT22;6757;52.258;12.840;2023-04-01T15:03:30;9.20;99.90
7461;DHT22;6757;52.258;12.840;2023-04-01T15:06:34;9.20;99.90
7461;DHT22;6757;52.258;12.840;2023-04-01T15:09:14;9.10;99.90
7461;DHT22;6757;52.258;12.840;2023-04-01T15:11:56;9.10;99.90
7461;DHT22;6757;52.258;12.840;2023-04-01T15:14:46;9.00;99.90
7461;DHT22;6757;52.258;12.840;2023-04-01T15:17:27;8.90;99.90
7461;DHT22;6757;52.258;12.840;2023-04-01T15:20:14;8.90;99.90
7461;DHT22;6757;52.258;12.840;2023-04-01T15:23:06;8.80;99.90
7461;DHT22;6757;52.258;12.840;2023-04-01T15:25:50;8.80;99.90
7461;DHT22;6757;52.258;12.840;2023-04-01T15:28:36;8.70;99.90
7461;DHT22;6757;52.258;12.840;2023-04-01T15:31:11;8.70;99.90
7461;DHT22;6757;52.258;12.840;2023-04-01T15:33:50;8.60;99.90
7461;DHT22;6757;52.258;12.840;2023-04-01T15:36:30;8.60;99.90
7461;DHT22;6757;52.258;12.840;2023-04-01T15:39:11;8.50;99.90
7461;DHT22;6757;52.258;12.840;2023-04-01T15:41:46;8.50;99.90
7461;DHT22;6757;52.258;12.840;2023-04-01T15:44:46;8.50;99.90
7461;DHT22;6757;52.258;12.840;2023-04-01T15:47:33;8.50;99.90
7461;DHT22;6757;52.258;12.840;2023-04-01T15:50:26;8.40;99.90
7461;DHT22;6757;52.258;12.840;2023-04-01T15:53:11;8.40;99.90
7461;DHT22;6757;52.258;12.840;2023-04-01T15:55:56;8.40;99.90
7461;DHT22;6757;52.258;12.840;2023-04-01T15:58:40;8.40;99.90
7461;DHT22;6757;52.258;12.840;2023-04-01T16:01:23;8.40;99.90
7461;DHT22;6757;52.258;12.840;2023-04-01T16:03:58;8.30;99.90
7461;DHT22;6757;52.258;12.840;2023-04-01T16:06:45;8.30;99.90
7461;DHT22;6757;52.258;12.840;2023-04-01T16:12:40;8.30;99.90
7461;DHT22;6757;52.258;12.840;2023-04-01T16:15:24;8.20;99.90
7461;DHT22;6757;52.258;12.840;2023-04-01T16:18:15;8.20;99.90
7461;DHT22;6757;52.258;12.840;2023-04-01T16:20:54;8.10;99.90
7461;DHT22;6757;52.258;12.840;2023-04-01T16:23:26;8.10;99.90
7461;DHT22;6757;52.258;12.840;2023-04-01T16:26:05;8.10;99.90
7461;DHT22;6757;52.258;12.840;2023-04-01T16:28:40;8.10;99.90
7461;DHT22;6757;52.258;12.840;2023-04-01T16:31:15;8.00;99.90
7461;DHT22;6757;52.258;12.840;2023-04-01T16:33:56;8.00;99.90
7461;DHT22;6757;52.258;12.840;2023-04-01T16:36:29;8.00;99.90
7461;DHT22;6757;52.258;12.840;2023-04-01T16:39:17;8.00;99.90
7461;DHT22;6757;52.258;12.840;2023-04-01T16:41:51;7.90;99.90
7461;DHT22;6757;52.258;12.840;2023-04-01T16:44:26;7.90;99.90
7461;DHT22;6757;52.258;12.840;2023-04-01T16:46:56;7.80;99.90
7461;DHT22;6757;52.258;12.840;2023-04-01T16:49:31;7.80;99.90
7461;DHT22;6757;52.258;12.840;2023-04-01T16:52:16;7.70;99.90
7461;DHT22;6757;52.258;12.840;2023-04-01T16:55:07;7.70;99.90
7461;DHT22;6757;52.258;12.840;2023-04-01T16:57:46;7.60;99.90
7461;DHT22;6757;52.258;12.840;2023-04-01T17:00:24;7.60;99.90
7461;DHT22;6757;52.258;12.840;2023-04-01T17:03:01;7.50;99.90
7461;DHT22;6757;52.258;12.840;2023-04-01T17:05:48;7.50;99.90
7461;DHT22;6757;52.258;12.840;2023-04-01T17:08:37;7.50;99.90
7461;DHT22;6757;52.258;12.840;2023-04-01T17:11:18;7.40;99.90
7461;DHT22;6757;52.258;12.840;2023-04-01T17:13:53;7.40;99.90
7461;DHT22;6757;52.258;12.840;2023-04-01T17:19:46;7.30;99.90
7461;DHT22;6757;52.258;12.840;2023-04-01T17:22:20;7.30;99.90
7461;DHT22;6757;52.258;12.840;2023-04-01T17:25:01;7.30;99.90
7461;DHT22;6757;52.258;12.840;2023-04-01T17:27:40;7.20;99.90
7461;DHT22;6757;52.258;12.840;2023-04-01T17:30:20;7.20;99.90
7461;DHT22;6757;52.258;12.840;2023-04-01T17:35:58;7.10;99.90
7461;DHT22;6757;52.258;12.840;2023-04-01T17:38:54;7.00;99.90
7461;DHT22;6757;52.258;12.840;2023-04-01T17:41:36;7.00;99.90
7461;DHT22;6757;52.258;12.840;2023-04-01T17:44:18;6.90;99.90
7461;DHT22;6757;52.258;12.840;2023-04-01T17:47:09;6.80;99.90
7461;DHT22;6757;52.258;12.840;2023-04-01T17:49:49;6.80;99.90
7461;DHT22;6757;52.258;12.840;2023-04-01T17:52:27;6.70;99.90
7461;DHT22;6757;52.258;12.840;2023-04-01T17:55:15;6.70;99.90
7461;DHT22;6757;52.258;12.840;2023-04-01T17:57:54;6.70;99.90
7461;DHT22;6757;52.258;12.840;2023-04-01T18:00:26;6.60;99.90
7461;DHT22;6757;52.258;12.840;2023-04-01T18:03:03;6.60;99.90
7461;DHT22;6757;52.258;12.840;2023-04-01T18:05:52;6.60;99.90
7461;DHT22;6757;52.258;12.840;2023-04-01T18:08:37;6.60;99.90
7461;DHT22;6757;52.258;12.840;2023-04-01T18:11:17;6.50;99.90
7461;DHT22;6757;52.258;12.840;2023-04-01T18:14:28;6.40;99.90
7461;DHT22;6757;52.258;12.840;2023-04-01T18:17:27;6.40;99.90
7461;DHT22;6757;52.258;12.840;2023-04-01T18:20:18;6.40;99.90
7461;DHT22;6757;52.258;12.840;2023-04-01T18:22:58;6.30;99.90
7461;DHT22;6757;52.258;12.840;2023-04-01T18:25:30;6.20;99.90
7461;DHT22;6757;52.258;12.840;2023-04-01T18:28:22;6.20;99.90
7461;DHT22;6757;52.258;12.840;2023-04-01T18:30:56;6.10;99.90